Time;durP1;ratioP1;P1;durP2;ratioP2;P2;SDS_P1;SDS_P2;PMS_P1;PMS_P2;Temp;Humidity;BMP_temperature;BMP_pressure;BME280_temperature;BME280_humidity;BME280_pressure;Samples;Min_cycle;Max_cycle;Signal;HPM_P1;HPM_P2
2023/11/27 00:00:25;;;;;;;0.20;0.20;;;;;;;2.15;54.29;96452.28;5025095;28;20142;-59
2023/11/27 00:03:06;;;;;;;0.30;0.30;;;;;;;2.21;54.91;96464.59;5025313;28;20060;-59
2023/11/27 00:05:32;;;;;;;0.20;0.20;;;;;;;2.16;55.41;96467.53;5023961;28;20045;-60
2023/11/27 00:07:59;;;;;;;0.20;0.20;;;;;;;2.16;56.18;96460.13;5025653;28;20139;-59
2023/11/27 00:10:26;;;;;;;0.20;0.20;;;;;;;2.12;56.58;96466.59;5025398;28;20128;-58
2023/11/27 00:12:58;;;;;;;0.20;0.20;;;;;;;1.67;56.23;96368.06;5030797;28;20057;-60
2023/11/27 00:15:25;;;;;;;0.20;0.20;;;;;;;2.15;56.78;96453.06;5025152;28;20429;-59
2023/11/27 00:17:52;;;;;;;0.30;0.30;;;;;;;2.25;55.84;96466.34;5025099;28;20077;-59
2023/11/27 00:20:19;;;;;;;0.20;0.20;;;;;;;2.17;52.67;96464.47;5024731;28;20053;-59
2023/11/27 00:22:46;;;;;;;0.20;0.20;;;;;;;2.13;51.85;96468.19;5024855;28;20050;-60
2023/11/27 00:25:13;;;;;;;0.20;0.20;;;;;;;2.17;51.76;96471.84;5024665;28;20056;-58
2023/11/27 00:27:39;;;;;;;0.20;0.20;;;;;;;2.17;52.28;96478.13;5024825;28;20049;-58
2023/11/27 00:30:07;;;;;;;0.20;0.20;;;;;;;2.07;52.43;96474.97;5024787;28;20106;-60
2023/11/27 00:32:34;;;;;;;0.20;0.20;;;;;;;1.82;53.07;96426.75;5023407;28;20487;-58
2023/11/27 00:35:01;;;;;;;0.20;0.20;;;;;;;2.21;52.12;96481.00;5023399;28;20049;-58
2023/11/27 00:37:28;;;;;;;0.20;0.20;;;;;;;1.40;53.04;96357.63;5024475;28;20053;-58
2023/11/27 00:39:54;;;;;;;0.20;0.20;;;;;;;1.55;54.29;96379.69;5024919;28;20172;-58
2023/11/27 00:42:22;;;;;;;0.20;0.20;;;;;;;2.24;54.32;96496.72;5023808;28;20514;-59
2023/11/27 00:44:49;;;;;;;0.20;0.20;;;;;;;1.82;53.71;96451.34;5024512;28;20049;-60
2023/11/27 00:47:17;;;;;;;0.20;0.20;;;;;;;2.15;54.72;96487.78;5039703;28;20046;-58
2023/11/27 00:49:44;;;;;;;0.20;0.20;;;;;;;1.80;55.66;96459.03;5025153;28;20142;-58
2023/11/27 00:52:10;;;;;;;0.20;0.20;;;;;;;1.72;55.59;96440.78;5024724;28;20057;-58
2023/11/27 00:54:37;;;;;;;0.20;0.20;;;;;;;2.09;55.29;96527.31;5024321;28;20146;-59
2023/11/27 00:57:07;;;;;;;0.20;0.20;;;;;;;2.02;55.46;96505.19;5024333;28;20430;-58
2023/11/27 00:59:39;;;;;;;0.20;0.20;;;;;;;1.95;56.38;96504.91;5024522;28;20053;-61
2023/11/27 01:02:06;;;;;;;0.20;0.20;;;;;;;1.97;56.93;96505.38;5024354;28;20049;-58
2023/11/27 01:04:33;;;;;;;0.20;0.20;;;;;;;1.89;56.24;96507.03;5024495;28;20427;-60
2023/11/27 01:07:00;;;;;;;0.20;0.20;;;;;;;1.90;56.78;96513.28;5022764;28;20054;-57
2023/11/27 01:09:27;;;;;;;0.20;0.20;;;;;;;1.94;57.72;96503.31;5039060;28;20526;-58
2023/11/27 01:11:54;;;;;;;0.20;0.20;;;;;;;1.76;58.27;96507.22;5023466;28;20050;-58
2023/11/27 01:14:21;;;;;;;0.20;0.20;;;;;;;1.84;58.82;96509.13;5022914;28;20057;-59
2023/11/27 01:16:47;;;;;;;0.20;0.20;;;;;;;1.78;58.51;96516.72;5023855;28;20045;-58
2023/11/27 01:19:14;;;;;;;0.20;0.20;;;;;;;1.72;57.96;96522.66;5022760;28;20162;-57
2023/11/27 01:21:41;;;;;;;0.20;0.20;;;;;;;1.60;58.83;96511.63;5024005;28;20053;-58
2023/11/27 01:24:08;;;;;;;0.20;0.20;;;;;;;1.63;58.50;96514.50;5023774;28;20054;-58
2023/11/27 01:26:35;;;;;;;0.20;0.20;;;;;;;1.68;57.70;96521.69;5024162;28;20049;-58
2023/11/27 01:29:02;;;;;;;0.20;0.20;;;;;;;1.69;57.13;96517.88;5022582;28;20053;-58
2023/11/27 01:31:29;;;;;;;0.20;0.20;;;;;;;0.72;57.74;96358.66;5023794;28;20442;-58
2023/11/27 01:33:56;;;;;;;0.20;0.20;;;;;;;1.19;57.36;96469.38;5023229;28;20133;-58
2023/11/27 01:36:23;;;;;;;0.20;0.20;;;;;;;1.44;58.41;96539.44;5023663;28;20060;-58
2023/11/27 01:38:50;;;;;;;0.20;0.20;;;;;;;1.36;58.91;96523.88;5024110;28;20049;-57
2023/11/27 01:41:17;;;;;;;0.20;0.20;;;;;;;1.23;58.58;96516.69;5039146;28;20055;-58
2023/11/27 01:43:45;;;;;;;0.28;0.28;;;;;;;1.47;59.27;96543.47;5022514;28;20050;-57
2023/11/27 01:46:26;;;;;;;0.20;0.20;;;;;;;1.42;59.15;96552.59;5023697;28;20060;-58
2023/11/27 01:48:55;;;;;;;0.20;0.20;;;;;;;1.37;59.70;96552.78;5023695;28;20056;-58
2023/11/27 01:51:23;;;;;;;0.20;0.20;;;;;;;1.38;60.29;96550.84;5038842;28;20484;-58
2023/11/27 01:53:50;;;;;;;0.20;0.20;;;;;;;1.37;59.85;96558.25;5025595;28;20060;-57
2023/11/27 01:56:19;;;;;;;0.20;0.20;;;;;;;1.43;59.91;96553.41;5027798;28;20530;-58
2023/11/27 01:58:48;;;;;;;0.20;0.20;;;;;;;1.33;60.11;96527.25;5027565;28;20050;-59
2023/11/27 02:01:16;;;;;;;0.20;0.20;;;;;;;1.39;60.41;96547.78;5042922;28;20057;-58
2023/11/27 02:03:43;;;;;;;0.20;0.20;;;;;;;1.36;60.44;96542.97;5026133;28;20089;-59
2023/11/27 02:06:10;;;;;;;0.20;0.20;;;;;;;1.30;60.29;96555.19;5027485;28;20049;-58
2023/11/27 02:08:37;;;;;;;0.20;0.20;;;;;;;1.33;60.94;96543.63;5027579;28;20056;-59
2023/11/27 02:11:04;;;;;;;0.20;0.20;;;;;;;1.27;61.20;96555.03;5027694;28;20444;-58
2023/11/27 02:13:30;;;;;;;0.20;0.20;;;;;;;1.27;60.45;96561.28;5027218;28;20065;-58
2023/11/27 02:15:57;;;;;;;0.20;0.20;;;;;;;1.34;60.92;96560.81;5027611;28;20049;-59
2023/11/27 02:18:24;;;;;;;0.20;0.20;;;;;;;1.10;60.77;96519.59;5027611;28;20057;-58
2023/11/27 02:20:51;;;;;;;0.20;0.20;;;;;;;0.96;61.48;96506.16;5026350;28;20061;-57
2023/11/27 02:23:18;;;;;;;0.20;0.20;;;;;;;1.42;61.51;96568.97;5027812;28;20060;-58
2023/11/27 02:25:44;;;;;;;0.20;0.20;;;;;;;1.49;60.25;96569.28;5027236;28;20530;-57
2023/11/27 02:28:11;;;;;;;0.20;0.20;;;;;;;1.54;60.22;96577.31;5027109;28;20057;-58
2023/11/27 02:30:38;;;;;;;0.20;0.20;;;;;;;1.55;59.81;96584.34;5026693;28;20655;-58
2023/11/27 02:33:06;;;;;;;0.20;0.20;;;;;;;1.62;58.55;96583.88;5025434;28;20056;-58
2023/11/27 02:35:33;;;;;;;0.20;0.20;;;;;;;1.48;56.91;96588.72;5027141;28;20056;-58
2023/11/27 02:38:02;;;;;;;0.20;0.20;;;;;;;1.39;56.71;96585.97;5026834;28;20231;-59
2023/11/27 02:40:30;;;;;;;0.20;0.20;;;;;;;1.35;57.07;96579.56;5026912;28;20483;-58
2023/11/27 02:42:57;;;;;;;0.20;0.20;;;;;;;1.32;55.82;96580.22;5025609;28;20077;-58
2023/11/27 02:45:24;;;;;;;0.20;0.20;;;;;;;1.38;56.24;96589.84;5026755;28;20046;-58
2023/11/27 02:47:51;;;;;;;0.20;0.20;;;;;;;1.34;55.96;96580.69;5026251;28;20097;-58
2023/11/27 02:50:22;;;;;;;0.20;0.20;;;;;;;1.36;56.57;96585.81;5026122;28;20518;-57
2023/11/27 02:52:49;;;;;;;0.20;0.20;;;;;;;1.44;56.95;96580.34;5027144;28;20150;-58
2023/11/27 02:55:19;;;;;;;0.20;0.20;;;;;;;1.42;57.23;96579.88;5024922;28;20512;-58
2023/11/27 02:57:46;;;;;;;0.20;0.20;;;;;;;1.20;57.37;96554.72;5026789;28;20087;-58
2023/11/27 03:00:15;;;;;;;0.20;0.20;;;;;;;1.43;57.98;96600.59;5026779;28;20435;-58
2023/11/27 03:02:45;;;;;;;0.20;0.20;;;;;;;1.35;55.71;96590.50;5026587;28;20063;-58
2023/11/27 03:05:12;;;;;;;0.20;0.20;;;;;;;1.28;54.50;96584.72;5040811;28;20053;-58
2023/11/27 03:07:38;;;;;;;0.20;0.20;;;;;;;1.41;53.94;96594.66;5024561;28;20052;-59
2023/11/27 03:10:07;;;;;;;0.20;0.20;;;;;;;1.48;54.80;96600.44;5041125;28;20118;-59
2023/11/27 03:12:38;;;;;;;0.20;0.20;;;;;;;1.54;55.16;96609.25;5020925;28;20053;-60
2023/11/27 03:15:08;;;;;;;0.20;0.20;;;;;;;1.12;55.52;96552.81;5026038;28;20057;-60
2023/11/27 03:17:37;;;;;;;0.20;0.20;;;;;;;1.11;55.75;96552.00;5026379;28;20080;-59
2023/11/27 03:20:10;;;;;;;0.20;0.20;;;;;;;1.50;52.42;96609.06;5025174;28;20507;-58
2023/11/27 03:22:37;;;;;;;0.20;0.20;;;;;;;1.26;53.42;96562.44;5041191;28;20049;-58
2023/11/27 03:25:04;;;;;;;0.20;0.20;;;;;;;1.66;56.44;96611.31;5025920;28;20045;-59
2023/11/27 03:27:32;;;;;;;0.20;0.20;;;;;;;1.73;54.25;96622.53;5026029;28;20077;-59
2023/11/27 03:29:58;;;;;;;0.20;0.20;;;;;;;1.80;55.71;96611.94;5025924;28;20056;-59
2023/11/27 03:32:31;;;;;;;0.20;0.20;;;;;;;1.89;56.73;96609.97;5024638;28;20132;-59
2023/11/27 03:34:58;;;;;;;0.20;0.20;;;;;;;1.47;57.29;96566.06;5025923;28;20061;-58
2023/11/27 03:37:25;;;;;;;0.20;0.20;;;;;;;1.78;56.67;96619.63;5040773;28;20119;-59
2023/11/27 03:39:52;;;;;;;0.20;0.20;;;;;;;1.39;50.92;96569.59;5025894;28;20068;-58
2023/11/27 03:42:18;;;;;;;0.20;0.20;;;;;;;1.65;52.11;96623.34;5025479;28;20506;-58
2023/11/27 03:44:45;;;;;;;0.20;0.20;;;;;;;1.31;51.85;96597.69;5011527;28;20524;-58
2023/11/27 03:47:12;;;;;;;0.20;0.20;;;;;;;1.58;53.38;96619.19;5005938;28;20549;-59
2023/11/27 03:49:39;;;;;;;0.20;0.20;;;;;;;1.55;51.95;96617.09;5005608;28;20054;-57
2023/11/27 03:52:07;;;;;;;0.20;0.20;;;;;;;1.44;51.73;96618.56;5020473;28;20602;-60
2023/11/27 03:54:34;;;;;;;0.20;0.20;;;;;;;1.40;52.04;96619.53;5005692;28;20600;-58
2023/11/27 03:57:01;;;;;;;0.20;0.20;;;;;;;1.36;50.69;96626.75;5005555;28;20045;-58
2023/11/27 03:59:28;;;;;;;0.20;0.20;;;;;;;0.92;51.53;96569.78;5005802;28;20054;-59
2023/11/27 04:01:55;;;;;;;0.20;0.20;;;;;;;0.42;50.55;96497.78;5005547;28;20060;-60
2023/11/27 04:04:22;;;;;;;0.20;0.20;;;;;;;1.14;50.83;96626.91;5005662;28;20046;-60
2023/11/27 04:06:48;;;;;;;0.20;0.20;;;;;;;1.13;51.15;96631.56;5005405;28;20045;-58
2023/11/27 04:09:20;;;;;;;0.20;0.20;;;;;;;0.26;50.22;96492.00;5005698;28;20236;-59
2023/11/27 04:11:52;;;;;;;0.20;0.20;;;;;;;1.18;51.80;96639.59;5005723;28;20112;-57
2023/11/27 04:14:18;;;;;;;0.20;0.20;;;;;;;0.89;50.07;96612.13;4985040;28;20054;-59
2023/11/27 04:16:45;;;;;;;0.20;0.20;;;;;;;1.11;50.84;96639.25;4985162;28;20050;-57
2023/11/27 04:19:12;;;;;;;0.20;0.20;;;;;;;1.12;51.10;96651.75;4985609;28;20054;-58
2023/11/27 04:21:39;;;;;;;0.20;0.20;;;;;;;1.16;51.02;96646.47;5000454;28;20061;-60
2023/11/27 04:24:06;;;;;;;0.20;0.20;;;;;;;1.14;50.82;96644.06;4985887;28;20842;-58
2023/11/27 04:26:33;;;;;;;0.20;0.20;;;;;;;1.10;49.90;96654.03;4985654;28;20101;-58
2023/11/27 04:28:59;;;;;;;0.20;0.20;;;;;;;1.10;50.39;96648.56;4985101;28;20057;-58
2023/11/27 04:31:26;;;;;;;0.20;0.20;;;;;;;0.59;49.77;96595.88;4985288;28;20603;-58
2023/11/27 04:33:53;;;;;;;0.20;0.20;;;;;;;1.08;51.56;96645.34;5000494;28;20341;-57
2023/11/27 04:36:20;;;;;;;0.20;0.20;;;;;;;1.10;50.62;96648.56;4985022;28;20060;-59
2023/11/27 04:38:50;;;;;;;0.20;0.20;;;;;;;1.11;50.51;96666.53;4985398;28;20050;-59
2023/11/27 04:41:17;;;;;;;0.20;0.20;;;;;;;0.94;47.99;96639.25;4985351;28;20149;-60
2023/11/27 04:43:43;;;;;;;0.10;0.10;;;;;;;1.12;48.91;96651.75;4985222;28;20050;-58
2023/11/27 04:46:11;;;;;;;0.20;0.20;;;;;;;1.15;50.18;96662.06;5000156;28;20061;-59
2023/11/27 04:48:38;;;;;;;0.20;0.20;;;;;;;1.11;52.28;96661.06;5000307;28;20201;-58
2023/11/27 04:51:05;;;;;;;0.20;0.20;;;;;;;1.19;49.89;96656.75;4999985;28;20448;-58
2023/11/27 04:53:32;;;;;;;0.10;0.10;;;;;;;0.99;48.17;96641.81;4984827;28;20054;-58
2023/11/27 04:55:59;;;;;;;0.20;0.20;;;;;;;1.15;47.33;96647.63;4999454;28;20073;-58
2023/11/27 04:58:26;;;;;;;0.20;0.20;;;;;;;1.07;48.58;96627.41;4984311;28;20061;-58
2023/11/27 05:00:53;;;;;;;0.20;0.20;;;;;;;0.98;49.01;96590.34;4984905;28;20130;-59
2023/11/27 05:03:20;;;;;;;0.20;0.20;;;;;;;1.32;48.93;96645.69;4999803;28;20518;-58
2023/11/27 05:05:47;;;;;;;0.20;0.20;;;;;;;1.45;48.35;96672.00;4999698;28;20050;-58
2023/11/27 05:08:14;;;;;;;0.20;0.20;;;;;;;1.43;48.35;96657.88;4984779;28;20050;-58
2023/11/27 05:10:41;;;;;;;0.20;0.20;;;;;;;0.75;48.60;96581.50;4984849;28;20050;-61
2023/11/27 05:13:08;;;;;;;0.20;0.20;;;;;;;0.81;48.08;96607.47;4993867;28;20053;-58
2023/11/27 05:15:35;;;;;;;0.20;0.20;;;;;;;1.39;48.31;96673.28;5004102;28;20503;-58
2023/11/27 05:18:04;;;;;;;0.20;0.20;;;;;;;1.51;46.90;96675.38;5019344;28;20495;-59
2023/11/27 05:20:30;;;;;;;0.20;0.20;;;;;;;1.60;47.75;96686.31;5004158;28;20106;-59
2023/11/27 05:22:59;;;;;;;0.20;0.20;;;;;;;1.60;47.46;96689.03;5004610;28;20057;-58
2023/11/27 05:25:25;;;;;;;0.20;0.20;;;;;;;1.56;48.15;96684.19;5004248;28;20050;-58
2023/11/27 05:27:52;;;;;;;0.20;0.20;;;;;;;1.56;48.49;96683.41;5004497;28;20053;-59
2023/11/27 05:30:21;;;;;;;0.20;0.20;;;;;;;1.44;47.91;96654.03;5004053;28;20054;-59
2023/11/27 05:32:50;;;;;;;0.20;0.20;;;;;;;1.72;48.33;96681.81;5004143;28;20133;-58
2023/11/27 05:35:17;;;;;;;0.20;0.20;;;;;;;1.82;47.76;96686.13;5002902;28;20105;-59
2023/11/27 05:37:44;;;;;;;0.20;0.20;;;;;;;1.62;48.40;96690.31;5004287;28;20134;-59
2023/11/27 05:40:11;;;;;;;0.20;0.20;;;;;;;1.68;47.88;96696.38;5019063;28;20057;-57
2023/11/27 05:42:39;;;;;;;0.20;0.20;;;;;;;1.47;47.45;96637.00;5003752;28;20104;-59
2023/11/27 05:45:10;;;;;;;0.20;0.20;;;;;;;1.42;48.09;96628.97;5001580;28;20050;-59
2023/11/27 05:47:39;;;;;;;0.20;0.20;;;;;;;1.78;49.98;96679.69;5002708;28;20072;-59
2023/11/27 05:50:08;;;;;;;0.20;0.20;;;;;;;1.87;48.54;96705.06;5002926;28;20062;-58
2023/11/27 05:52:35;;;;;;;0.20;0.20;;;;;;;1.83;49.16;96698.66;5001986;28;20052;-60
2023/11/27 05:55:02;;;;;;;0.20;0.20;;;;;;;0.58;50.26;96521.53;5000857;28;20050;-59
2023/11/27 05:57:34;;;;;;;0.20;0.20;;;;;;;1.77;48.40;96710.84;5001485;28;20050;-60
2023/11/27 06:00:03;;;;;;;0.20;0.20;;;;;;;1.84;48.59;96717.44;5003888;28;20085;-58
2023/11/27 06:02:30;;;;;;;0.20;0.20;;;;;;;1.78;48.80;96729.66;5001997;28;20523;-59
2023/11/27 06:04:57;;;;;;;0.20;0.20;;;;;;;1.81;49.60;96712.63;5003552;28;20112;-58
2023/11/27 06:07:24;;;;;;;0.20;0.20;;;;;;;1.97;48.76;96729.31;5003605;28;20137;-60
2023/11/27 06:09:51;;;;;;;0.20;0.20;;;;;;;2.00;48.97;96725.94;5004007;28;20479;-60
2023/11/27 06:12:18;;;;;;;0.20;0.20;;;;;;;1.88;47.05;96712.13;5001455;28;20084;-60
2023/11/27 06:14:45;;;;;;;0.20;0.20;;;;;;;2.02;47.61;96745.53;5003907;28;20042;-60
2023/11/27 06:17:12;;;;;;;0.20;0.20;;;;;;;1.11;48.27;96589.38;5003345;28;20057;-59
2023/11/27 06:19:39;;;;;;;0.20;0.20;;;;;;;1.95;48.56;96740.56;5003729;28;20058;-60
2023/11/27 06:22:06;;;;;;;0.20;0.20;;;;;;;1.92;49.18;96751.31;5002147;28;20050;-59
2023/11/27 06:24:33;;;;;;;0.20;0.20;;;;;;;1.85;49.97;96756.47;5003543;28;20056;-59
2023/11/27 06:27:00;;;;;;;0.20;0.20;;;;;;;1.28;50.36;96633.81;5002042;28;20496;-60
2023/11/27 06:29:27;;;;;;;0.20;0.20;;;;;;;1.71;51.83;96701.22;5003065;28;20546;-59
2023/11/27 06:31:54;;;;;;;0.20;0.20;;;;;;;2.09;48.32;96751.28;5003621;28;20050;-60
2023/11/27 06:34:21;;;;;;;0.20;0.20;;;;;;;2.17;48.23;96756.75;5018431;28;20064;-60
2023/11/27 06:36:48;;;;;;;0.20;0.20;;;;;;;2.39;46.62;96761.22;5003402;28;20597;-60
2023/11/27 06:39:15;;;;;;;0.20;0.20;;;;;;;2.56;47.14;96778.38;5004884;28;20050;-60
2023/11/27 06:41:42;;;;;;;0.28;0.28;;;;;;;2.71;47.33;96779.78;5007216;28;20129;-59
2023/11/27 06:44:12;;;;;;;0.20;0.20;;;;;;;2.82;46.99;96783.78;5004986;28;20053;-58
2023/11/27 06:46:39;;;;;;;0.20;0.20;;;;;;;2.48;47.47;96715.53;5021931;28;20435;-61
2023/11/27 06:49:06;;;;;;;0.30;0.30;;;;;;;2.93;47.72;96785.03;5006684;28;20049;-59
2023/11/27 06:51:33;;;;;;;0.30;0.30;;;;;;;3.18;47.48;96792.31;5006528;28;20060;-59
2023/11/27 06:54:00;;;;;;;0.20;0.20;;;;;;;3.25;47.31;96797.28;5021866;28;20065;-62
2023/11/27 06:56:33;;;;;;;0.30;0.30;;;;;;;3.27;47.91;96771.19;5006732;28;20049;-59
2023/11/27 06:59:01;;;;;;;0.30;0.30;;;;;;;3.40;47.49;96783.03;5006592;28;20492;-59
2023/11/27 07:01:29;;;;;;;0.30;0.30;;;;;;;2.46;48.16;96685.81;5002630;28;20042;-60
2023/11/27 07:03:56;;;;;;;0.20;0.20;;;;;;;2.51;48.29;96643.81;5001831;28;20038;-60
2023/11/27 07:06:27;;;;;;;0.30;0.30;;;;;;;0.73;47.79;96387.50;5000899;28;20046;-63
2023/11/27 07:08:54;;;;;;;0.20;0.20;;;;;;;3.29;49.66;96790.81;5020712;28;20049;-65
2023/11/27 07:11:24;;;;;;;0.20;0.20;;;;;;;3.37;47.60;96797.41;5004703;28;20049;-63
2023/11/27 07:13:51;;;;;;;0.30;0.30;;;;;;;3.62;48.46;96794.47;4998048;28;20050;-68
2023/11/27 07:16:18;;;;;;;0.30;0.30;;;;;;;1.73;49.37;96491.50;5004102;28;20093;-65
2023/11/27 07:18:46;;;;;;;0.22;0.22;;;;;;;3.92;50.20;96820.72;5005116;28;20515;-67
2023/11/27 07:21:13;;;;;;;0.30;0.30;;;;;;;3.98;49.65;96741.88;5004311;28;20481;-69
2023/11/27 07:23:40;;;;;;;0.30;0.30;;;;;;;4.42;48.83;96802.25;5002074;28;20092;-65
2023/11/27 07:26:08;;;;;;;0.30;0.30;;;;;;;3.83;47.34;96674.78;5002196;28;20453;-67
2023/11/27 07:28:38;;;;;;;0.30;0.30;;;;;;;3.90;47.96;96751.78;5002822;28;20600;-61
2023/11/27 07:31:05;;;;;;;0.30;0.30;;;;;;;4.14;48.26;96790.22;5003496;28;20053;-59
2023/11/27 07:33:31;;;;;;;0.30;0.30;;;;;;;4.12;48.01;96780.75;4999571;28;20057;-62
2023/11/27 07:35:58;;;;;;;0.25;0.25;;;;;;;3.88;47.92;96759.50;5000163;28;20071;-63
2023/11/27 07:38:25;;;;;;;0.30;0.30;;;;;;;4.35;48.22;96818.44;5003081;28;20049;-60
2023/11/27 07:40:52;;;;;;;0.30;0.30;;;;;;;4.40;48.42;96793.56;4993177;28;20068;-61
2023/11/27 07:43:19;;;;;;;0.30;0.30;;;;;;;4.57;47.68;96809.84;5002210;28;20115;-61
2023/11/27 07:45:45;;;;;;;0.30;0.30;;;;;;;4.21;47.67;96768.59;5003451;28;20062;-59
2023/11/27 07:48:12;;;;;;;0.30;0.30;;;;;;;4.42;48.34;96846.13;5002290;28;20054;-60
2023/11/27 07:50:40;;;;;;;0.30;0.30;;;;;;;4.50;48.68;96823.28;5004332;28;20153;-60
2023/11/27 07:53:08;;;;;;;0.30;0.30;;;;;;;4.34;48.12;96829.75;5004852;28;20053;-61
2023/11/27 07:55:34;;;;;;;0.30;0.30;;;;;;;4.42;48.24;96823.38;5004965;28;20056;-61
2023/11/27 07:58:02;;;;;;;0.30;0.30;;;;;;;4.50;48.03;96837.00;5005322;28;20049;-64
2023/11/27 08:00:31;;;;;;;0.30;0.30;;;;;;;3.86;47.90;96745.34;5005256;28;20053;-61
2023/11/27 08:02:58;;;;;;;0.30;0.30;;;;;;;3.45;47.53;96712.47;5019395;28;20428;-60
2023/11/27 08:05:27;;;;;;;0.30;0.30;;;;;;;3.99;47.51;96826.47;5005742;28;20060;-60
2023/11/27 08:07:54;;;;;;;0.30;0.30;;;;;;;4.35;49.42;96834.91;5006658;28;20593;-57
2023/11/27 08:10:21;;;;;;;0.30;0.30;;;;;;;4.21;48.49;96790.50;5004959;28;20169;-59
2023/11/27 08:12:48;;;;;;;0.30;0.30;;;;;;;3.86;47.98;96753.56;5001948;28;20058;-60
2023/11/27 08:15:18;;;;;;;0.30;0.30;;;;;;;4.31;48.94;96850.41;5003981;28;20050;-61
2023/11/27 08:17:45;;;;;;;0.30;0.30;;;;;;;3.59;48.76;96745.09;5003919;28;20054;-58
2023/11/27 08:20:15;;;;;;;0.30;0.30;;;;;;;4.19;49.32;96825.66;5019044;28;20132;-62
2023/11/27 08:22:42;;;;;;;0.30;0.30;;;;;;;3.41;49.93;96711.53;5003151;28;20058;-60
2023/11/27 08:25:16;;;;;;;0.30;0.30;;;;;;;4.05;49.18;96836.09;5003271;28;20406;-59
2023/11/27 08:27:44;;;;;;;0.30;0.30;;;;;;;4.25;49.21;96862.69;5001155;28;20049;-58
2023/11/27 08:30:11;;;;;;;0.30;0.30;;;;;;;4.24;48.79;96860.28;5003572;28;20056;-60
2023/11/27 08:32:39;;;;;;;0.30;0.30;;;;;;;4.06;48.44;96876.06;5002463;28;20504;-63
2023/11/27 08:35:08;;;;;;;0.30;0.30;;;;;;;4.05;49.48;96863.50;5004010;28;20072;-61
2023/11/27 08:37:39;;;;;;;0.30;0.30;;;;;;;2.92;49.90;96734.19;5001597;28;20551;-61
2023/11/27 08:40:09;;;;;;;0.30;0.30;;;;;;;3.49;49.67;96786.53;5003782;28;20041;-63
2023/11/27 08:42:37;;;;;;;0.30;0.30;;;;;;;3.76;50.08;96866.25;5003097;28;20065;-63
2023/11/27 08:45:10;;;;;;;0.20;0.20;;;;;;;3.38;50.28;96816.22;5003580;28;20535;-69
2023/11/27 08:47:40;;;;;;;0.30;0.30;;;;;;;3.64;50.48;96866.16;5005836;28;20053;-61
2023/11/27 08:50:09;;;;;;;0.30;0.30;;;;;;;2.88;51.49;96807.06;5011799;28;20056;-61
2023/11/27 08:52:36;;;;;;;0.20;0.20;;;;;;;3.08;51.10;96773.56;5008613;28;20559;-64
2023/11/27 08:55:05;;;;;;;0.30;0.30;;;;;;;3.85;50.07;96868.94;5018220;28;20136;-60
2023/11/27 08:57:32;;;;;;;0.30;0.30;;;;;;;4.02;50.01;96869.66;5000905;28;20125;-59
2023/11/27 09:00:05;;;;;;;0.30;0.30;;;;;;;4.23;50.05;96869.66;5003033;28;20072;-62
2023/11/27 09:02:32;;;;;;;0.30;0.30;;;;;;;2.48;49.05;96630.81;5006605;28;20049;-59
2023/11/27 09:04:59;;;;;;;0.30;0.30;;;;;;;4.23;49.02;96832.09;5004732;28;20284;-56
2023/11/27 09:07:26;;;;;;;0.30;0.30;;;;;;;4.45;48.46;96856.44;5000839;28;20077;-65
2023/11/27 09:09:52;;;;;;;0.30;0.30;;;;;;;4.49;48.59;96842.81;5002803;28;20061;-58
2023/11/27 09:12:19;;;;;;;0.30;0.30;;;;;;;4.73;48.98;96861.34;5000715;28;20053;-63
2023/11/27 09:14:46;;;;;;;0.30;0.30;;;;;;;4.76;48.29;96855.19;5017772;28;20080;-58
2023/11/27 09:17:13;;;;;;;0.30;0.30;;;;;;;4.38;47.67;96806.81;5002521;28;20049;-60
2023/11/27 09:19:40;;;;;;;0.30;0.30;;;;;;;4.05;47.73;96731.97;5003335;28;20065;-61
2023/11/27 09:22:06;;;;;;;0.30;0.30;;;;;;;4.62;47.84;96790.44;5001840;28;20045;-58
2023/11/27 09:24:33;;;;;;;0.30;0.30;;;;;;;3.97;46.53;96691.75;5005147;28;20611;-59
2023/11/27 09:27:01;;;;;;;0.30;0.30;;;;;;;4.43;48.04;96732.56;5003361;28;20045;-60
2023/11/27 09:29:28;;;;;;;0.30;0.30;;;;;;;5.23;48.08;96848.22;5002995;28;20061;-61
2023/11/27 09:31:55;;;;;;;0.30;0.30;;;;;;;4.98;46.63;96813.63;5001418;28;20041;-67
2023/11/27 09:34:22;;;;;;;0.30;0.30;;;;;;;5.10;46.47;96813.66;5010373;28;20504;-63
2023/11/27 09:36:49;;;;;;;0.30;0.30;;;;;;;5.16;47.01;96801.31;5002789;28;20045;-60
2023/11/27 09:39:30;;;;;;;0.30;0.30;;;;;;;5.38;46.85;96828.31;5004333;28;20507;-60
2023/11/27 09:41:57;;;;;;;0.30;0.30;;;;;;;5.65;46.60;96841.38;5003004;28;20046;-68
2023/11/27 09:44:25;;;;;;;0.30;0.30;;;;;;;5.70;46.50;96830.97;5003284;28;20166;-60
2023/11/27 09:46:57;;;;;;;0.30;0.30;;;;;;;5.76;45.66;96828.78;5003242;28;20141;-59
2023/11/27 09:49:28;;;;;;;0.40;0.40;;;;;;;4.90;45.51;96691.03;5005367;28;20073;-61
2023/11/27 09:52:03;;;;;;;0.30;0.30;;;;;;;5.51;45.35;96805.22;5002601;28;20153;-62
2023/11/27 09:54:33;;;;;;;0.30;0.30;;;;;;;5.17;45.86;96767.22;5016826;28;20060;-56
2023/11/27 09:57:02;;;;;;;0.40;0.40;;;;;;;5.73;45.81;96780.00;5001649;28;20129;-61
2023/11/27 09:59:33;;;;;;;0.30;0.30;;;;;;;5.96;44.79;96828.69;5002969;28;20053;-59
2023/11/27 10:02:02;;;;;;;0.30;0.30;;;;;;;5.53;44.54;96783.72;5001752;28;20069;-64
2023/11/27 10:04:30;;;;;;;0.30;0.30;;;;;;;2.81;45.22;96350.13;5012451;28;20046;-60
2023/11/27 10:06:57;;;;;;;0.30;0.30;;;;;;;5.91;45.45;96819.88;4999576;28;20173;-60
2023/11/27 10:09:24;;;;;;;0.30;0.30;;;;;;;5.50;44.61;96820.09;4996720;28;20050;-66
2023/11/27 10:11:56;;;;;;;0.40;0.40;;;;;;;6.01;44.48;96813.91;5020957;28;20500;-63
2023/11/27 10:14:24;;;;;;;0.30;0.30;;;;;;;6.10;45.11;96823.63;5023730;28;20561;-61
2023/11/27 10:17:05;;;;;;;0.40;0.40;;;;;;;6.29;44.98;96819.47;5025362;28;20057;-66
2023/11/27 10:19:39;;;;;;;0.30;0.30;;;;;;;6.29;44.21;96809.28;5026060;28;20049;-58
2023/11/27 10:22:08;;;;;;;0.40;0.40;;;;;;;6.33;44.70;96781.84;5024877;28;20045;-61
2023/11/27 10:24:35;;;;;;;0.40;0.40;;;;;;;6.75;45.13;96805.84;5026740;28;20053;-59
2023/11/27 10:27:08;;;;;;;0.40;0.40;;;;;;;6.29;44.91;96715.75;5026073;28;20052;-58
2023/11/27 10:29:35;;;;;;;0.40;0.40;;;;;;;6.22;43.61;96756.78;5024685;28;20061;-60
2023/11/27 10:32:03;;;;;;;0.30;0.30;;;;;;;6.53;43.93;96814.66;5026286;28;20053;-59
2023/11/27 10:34:34;;;;;;;0.40;0.40;;;;;;;6.30;44.86;96771.53;5041581;28;20057;-58
2023/11/27 10:37:02;;;;;;;0.40;0.40;;;;;;;6.18;44.06;96731.94;5026122;28;20049;-58
2023/11/27 10:39:33;;;;;;;0.40;0.40;;;;;;;6.69;44.38;96807.25;5027662;28;20138;-62
2023/11/27 10:42:07;;;;;;;0.40;0.40;;;;;;;6.31;44.32;96729.94;5026384;28;20041;-61
2023/11/27 10:44:40;;;;;;;0.40;0.40;;;;;;;5.77;44.23;96660.81;5023742;28;20049;-60
2023/11/27 10:47:07;;;;;;;0.40;0.40;;;;;;;6.68;44.06;96821.38;5023098;28;20129;-60
2023/11/27 10:49:38;;;;;;;0.30;0.30;;;;;;;6.67;43.63;96820.56;5024354;28;20049;-60
2023/11/27 10:52:05;;;;;;;0.30;0.30;;;;;;;6.54;43.89;96808.03;5023835;28;20148;-62
2023/11/27 10:54:34;;;;;;;0.30;0.30;;;;;;;6.01;43.45;96795.47;5024985;28;20092;-60
2023/11/27 10:57:03;;;;;;;0.30;0.30;;;;;;;6.45;44.29;96823.88;5025568;28;20045;-59
2023/11/27 10:59:34;;;;;;;0.40;0.40;;;;;;;6.06;43.26;96766.94;5023054;28;20049;-59
2023/11/27 11:02:04;;;;;;;0.40;0.40;;;;;;;6.44;44.14;96816.78;5021382;28;20075;-63
2023/11/27 11:04:50;;;;;;;0.40;0.40;;;;;;;6.66;43.98;96807.97;5025594;28;20180;-67
2023/11/27 11:07:38;;;;;;;0.40;0.40;;;;;;;6.60;43.31;96784.63;5026084;28;20518;-55
2023/11/27 11:10:10;;;;;;;0.40;0.40;;;;;;;6.78;43.09;96761.09;5027655;28;20140;-68
2023/11/27 11:12:41;;;;;;;0.35;0.35;;;;;;;6.45;42.92;96702.81;5023563;28;20104;-63
2023/11/27 11:15:18;;;;;;;0.40;0.40;;;;;;;6.84;43.55;96780.94;5026541;28;20060;-62
2023/11/27 11:18:17;;;;;;;0.30;0.30;;;;;;;6.68;42.55;96731.38;5022642;28;20124;-65
2023/11/27 11:20:46;;;;;;;0.40;0.40;;;;;;;7.10;42.84;96801.31;5023067;28;20053;-66
2023/11/27 11:23:28;;;;;;;0.30;0.30;;;;;;;7.17;42.55;96790.50;5024839;28;20049;-61
2023/11/27 11:26:21;;;;;;;0.40;0.40;;;;;;;7.34;42.15;96789.31;5024285;28;20059;-61
2023/11/27 11:29:11;;;;;;;0.40;0.40;;;;;;;6.42;42.78;96648.50;5023739;28;20057;-64
2023/11/27 11:31:48;;;;;;;0.40;0.40;;;;;;;6.28;41.87;96615.13;5021659;28;20347;-61
2023/11/27 11:34:22;;;;;;;0.40;0.40;;;;;;;6.81;41.16;96677.81;5018152;28;20115;-61
2023/11/27 11:37:00;;;;;;;0.40;0.40;;;;;;;7.15;41.85;96726.69;5021964;28;20144;-65
2023/11/27 11:39:28;;;;;;;0.40;0.40;;;;;;;7.29;41.54;96765.59;5021458;28;20059;-61
2023/11/27 11:42:03;;;;;;;0.40;0.40;;;;;;;7.19;41.77;96787.38;5021141;28;20045;-59
2023/11/27 11:44:35;;;;;;;0.35;0.35;;;;;;;6.59;41.48;96703.19;5022349;28;20045;-58
2023/11/27 11:47:08;;;;;;;0.30;0.30;;;;;;;6.31;42.85;96737.41;5020674;28;20132;-60